Time;durP1;ratioP1;P1;durP2;ratioP2;P2;SDS_P1;SDS_P2;PMS_P1;PMS_P2;Temp;Humidity;BMP_temperature;BMP_pressure;BME280_temperature;BME280_humidity;BME280_pressure;Samples;Min_cycle;Max_cycle;Signal;HPM_P1;HPM_P2
2022/05/17 00:00:59;;;;;;;7.07;2.05;;;11.10;99.90;;;;;;5094280;28;20263;-85
2022/05/17 00:03:25;;;;;;;2.22;1.65;;;;;;;;;;5058927;28;20693;-85
2022/05/17 00:05:51;;;;;;;3.75;1.95;;;;;;;;;;5075969;28;20252;-85
2022/05/17 00:08:17;;;;;;;4.22;2.08;;;11.00;99.90;;;;;;5093902;28;20206;-85
2022/05/17 00:10:45;;;;;;;3.90;2.40;;;10.90;99.90;;;;;;5059153;28;20269;-85
2022/05/17 00:13:11;;;;;;;3.00;2.00;;;;;;;;;;5075677;28;20257;-85
2022/05/17 00:15:40;;;;;;;6.10;2.58;;;11.00;99.90;;;;;;5075966;28;20216;-85
2022/05/17 00:18:09;;;;;;;2.97;1.75;;;;;;;;;;5075226;28;20265;-86
2022/05/17 00:20:35;;;;;;;3.20;2.28;;;;;;;;;;5093972;28;20170;-85
2022/05/17 00:23:02;;;;;;;7.75;2.65;;;;;;;;;;5075669;28;20209;-85
2022/05/17 00:25:28;;;;;;;5.22;2.03;;;;;;;;;;5093620;28;20204;-86
2022/05/17 00:27:54;;;;;;;4.25;2.50;;;;;;;;;;5075649;28;20236;-86
2022/05/17 00:30:20;;;;;;;4.28;1.92;;;10.70;99.90;;;;;;5093642;28;20261;-86
2022/05/17 00:32:46;;;;;;;3.90;2.13;;;;;;;;;;5093476;28;20603;-86
2022/05/17 00:35:13;;;;;;;4.03;2.38;;;;;;;;;;5075506;28;20178;-86
2022/05/17 00:37:39;;;;;;;4.35;2.75;;;;;;;;;;5075649;28;20175;-85
2022/05/17 00:40:06;;;;;;;4.70;2.10;;;10.60;99.90;;;;;;5094781;28;20645;-85
2022/05/17 00:42:32;;;;;;;4.90;2.90;;;;;;;;;;5061139;28;20276;-85
2022/05/17 00:44:59;;;;;;;3.43;2.13;;;;;;;;;;5061473;28;20217;-85
2022/05/17 00:47:32;;;;;;;3.10;2.27;;;10.50;99.90;;;;;;5096000;28;20185;-85
2022/05/17 00:49:58;;;;;;;5.13;2.43;;;;;;;;;;5088018;28;20169;-85
2022/05/17 00:52:40;;;;;;;2.75;2.25;;;10.50;99.90;;;;;;5118204;28;20159;-85
2022/05/17 00:55:24;;;;;;;4.17;2.40;;;10.40;99.90;;;;;;5101100;28;20234;-84
2022/05/17 00:58:03;;;;;;;8.30;2.90;;;10.40;99.90;;;;;;5118322;28;20171;-85
2022/05/17 01:00:33;;;;;;;4.90;2.50;;;10.40;99.90;;;;;;5099099;28;20178;-85
2022/05/17 01:03:02;;;;;;;3.27;2.10;;;10.30;99.90;;;;;;5095418;28;20250;-85
2022/05/17 01:05:32;;;;;;;3.30;2.60;;;10.20;99.90;;;;;;5108822;28;20201;-86
2022/05/17 01:07:59;;;;;;;5.73;2.87;;;10.20;99.90;;;;;;5118195;28;20155;-85
2022/05/17 01:10:27;;;;;;;2.70;2.28;;;10.20;99.90;;;;;;5118080;28;20163;-85
2022/05/17 01:15:39;;;;;;;2.47;2.27;;;10.20;99.90;;;;;;5093417;28;20214;-85
2022/05/17 01:18:06;;;;;;;5.67;2.37;;;10.20;99.90;;;;;;5075101;28;20205;-85
2022/05/17 01:20:32;;;;;;;5.07;2.50;;;;;;;;;;5092785;28;20174;-85
2022/05/17 01:22:59;;;;;;;4.00;2.50;;;;;;;;;;5095890;28;20176;-85
2022/05/17 01:25:25;;;;;;;4.90;3.13;;;10.00;99.90;;;;;;5078859;28;20198;-86
2022/05/17 01:28:03;;;;;;;3.70;2.17;;;;;;;;;;5078978;28;20187;-86
2022/05/17 01:30:30;;;;;;;3.87;2.67;;;;;;;;;;5096612;28;20686;-85
2022/05/17 01:32:56;;;;;;;2.60;2.00;;;;;;;;;;5079019;28;20628;-86
2022/05/17 01:35:22;;;;;;;4.20;2.67;;;;;;;;;;5096541;28;20203;-86
2022/05/17 01:37:54;;;;;;;4.30;2.40;;;;;;;;;;5078991;28;20187;-86
2022/05/17 01:40:20;;;;;;;4.60;2.57;;;;;;;;;;5078548;28;20175;-85
2022/05/17 01:42:46;;;;;;;3.77;1.97;;;;;;;;;;5078715;28;20190;-86
2022/05/17 01:45:13;;;;;;;2.67;2.07;;;;;;;;;;5096803;28;20627;-85
2022/05/17 01:47:39;;;;;;;3.73;2.00;;;;;;;;;;5078412;28;20274;-85
2022/05/17 01:50:05;;;;;;;4.70;2.03;;;9.60;99.90;;;;;;5079130;28;20182;-85
2022/05/17 01:52:31;;;;;;;2.17;1.97;;;;;;;;;;5062194;28;20186;-85
2022/05/17 01:54:58;;;;;;;5.00;2.30;;;;;;;;;;5079408;28;20182;-85
2022/05/17 01:57:24;;;;;;;5.43;2.37;;;;;;;;;;5097059;28;20186;-85
2022/05/17 01:59:50;;;;;;;5.23;2.40;;;;;;;;;;5097730;28;20175;-86
2022/05/17 02:02:16;;;;;;;2.93;2.03;;;;;;;;;;5096890;28;20570;-85
2022/05/17 02:04:42;;;;;;;5.03;3.00;;;;;;;;;;5097891;28;20175;-85
2022/05/17 02:07:08;;;;;;;3.67;1.97;;;;;;;;;;5097400;28;20249;-85
2022/05/17 02:09:34;;;;;;;3.97;1.90;;;;;;;;;;5078873;28;20182;-85
2022/05/17 02:12:01;;;;;;;2.73;1.80;;;;;;;;;;5079573;28;20178;-85
2022/05/17 02:14:27;;;;;;;5.37;2.83;;;;;;;;;;5078541;28;20174;-85
2022/05/17 02:16:53;;;;;;;4.10;2.37;;;;;;;;;;5078945;28;20511;-85
2022/05/17 02:19:20;;;;;;;2.17;1.73;;;;;;;;;;5078324;28;20185;-85
2022/05/17 02:21:47;;;;;;;3.53;1.73;;;;;;;;;;5061763;28;20224;-85
2022/05/17 02:24:13;;;;;;;3.63;1.90;;;;;;;;;;5078354;28;20182;-85
2022/05/17 02:26:39;;;;;;;2.60;1.77;;;;;;;;;;5061862;28;20214;-85
2022/05/17 02:29:05;;;;;;;5.10;2.83;;;;;;;;;;5078844;28;20544;-85
2022/05/17 02:31:31;;;;;;;2.57;1.93;;;;;;;;;;5096367;28;20235;-85
2022/05/17 02:33:57;;;;;;;4.23;2.80;;;;;;;;;;5080857;28;20183;-84
2022/05/17 02:36:23;;;;;;;3.13;2.23;;;;;;;;;;5063833;28;20212;-84
2022/05/17 02:38:50;;;;;;;1.47;1.30;;;;;;;;;;5082172;28;20186;-84
2022/05/17 02:41:19;;;;;;;3.17;2.00;;;9.00;99.90;;;;;;5079113;28;20201;-84
2022/05/17 02:43:48;;;;;;;4.30;3.13;;;;;;;;;;5078502;28;20631;-84
2022/05/17 02:46:14;;;;;;;7.30;3.97;;;;;;;;;;5079047;28;20202;-84
2022/05/17 02:48:40;;;;;;;6.30;2.30;;;;;;;;;;5063271;28;20186;-85
2022/05/17 02:51:09;;;;;;;4.30;2.97;;;;;;;;;;5082583;28;20183;-85
2022/05/17 02:53:35;;;;;;;5.17;3.00;;;;;;;;;;5101537;28;20170;-85
2022/05/17 02:56:01;;;;;;;5.03;3.50;;;;;;;;;;5077968;28;20191;-85
2022/05/17 02:58:27;;;;;;;4.07;2.47;;;;;;;;;;5077184;28;20228;-85
2022/05/17 03:00:55;;;;;;;4.40;2.37;;;;;;;;;;5077104;28;20178;-85
2022/05/17 03:03:21;;;;;;;5.47;2.90;;;;;;;;;;5076925;28;20230;-84
2022/05/17 03:05:47;;;;;;;6.07;3.63;;;;;;;;;;5094947;28;20719;-85
2022/05/17 03:08:13;;;;;;;6.17;2.73;;;;;;;;;;5060431;28;20225;-85
2022/05/17 03:10:39;;;;;;;5.53;2.43;;;;;;;;;;5076950;28;20206;-85
2022/05/17 03:13:05;;;;;;;4.47;2.83;;;8.90;99.90;;;;;;5060343;28;20519;-84
2022/05/17 03:15:31;;;;;;;4.67;2.37;;;;;;;;;;5076639;28;20209;-84
2022/05/17 03:17:57;;;;;;;7.27;3.50;;;9.10;99.90;;;;;;5060276;28;20178;-84
2022/05/17 03:20:23;;;;;;;5.80;2.93;;;8.90;99.90;;;;;;5043542;28;20650;-85
2022/05/17 03:22:48;;;;;;;4.97;2.90;;;9.20;99.90;;;;;;5059664;28;20186;-84
2022/05/17 03:25:14;;;;;;;4.03;3.23;;;;;;;;;;5060299;28;20182;-84
2022/05/17 03:27:40;;;;;;;4.40;2.40;;;9.20;99.90;;;;;;5094605;28;20628;-84
2022/05/17 03:30:07;;;;;;;8.50;3.17;;;9.40;99.90;;;;;;5094787;28;20221;-85
2022/05/17 03:32:33;;;;;;;4.60;2.90;;;;;;;;;;5085957;28;20187;-85
2022/05/17 03:34:58;;;;;;;3.53;2.83;;;9.80;99.90;;;;;;5060481;28;20195;-87
2022/05/17 03:37:24;;;;;;;5.47;2.90;;;;;;;;;;5035924;28;20198;-85
2022/05/17 03:39:52;;;;;;;2.67;2.20;;;9.80;99.90;;;;;;5090521;28;20175;-86
2022/05/17 03:42:18;;;;;;;7.97;3.00;;;;;;;;;;5064720;28;20274;-85
2022/05/17 03:44:44;;;;;;;4.77;2.83;;;10.00;99.90;;;;;;5071442;28;20293;-83
2022/05/17 03:47:10;;;;;;;4.47;2.33;;;;;;;;;;5049114;28;20301;-84
2022/05/17 03:49:39;;;;;;;2.63;2.43;;;10.00;99.90;;;;;;5054481;28;20183;-85
2022/05/17 03:52:05;;;;;;;3.37;2.10;;;9.80;99.90;;;;;;5056160;28;20190;-85
2022/05/17 03:54:32;;;;;;;3.23;2.07;;;10.10;99.90;;;;;;5071984;28;20618;-86
2022/05/17 03:56:58;;;;;;;2.53;1.87;;;;;;;;;;5054653;28;20217;-86
2022/05/17 03:59:24;;;;;;;2.90;1.93;;;;;;;;;;5074359;28;20655;-84
2022/05/17 04:01:50;;;;;;;2.30;2.03;;;;;;;;;;5071921;28;20233;-84
2022/05/17 04:04:16;;;;;;;2.35;1.75;;;;;;;;;;5056776;28;20197;-87
2022/05/17 04:06:42;;;;;;;3.37;2.30;;;;;;;;;;5073652;28;20662;-87
2022/05/17 04:09:10;;;;;;;2.33;2.13;;;;;;;;;;5074020;28;20224;-86
2022/05/17 04:11:36;;;;;;;3.20;2.10;;;;;;;;;;5068411;28;20594;-87
2022/05/17 04:14:03;;;;;;;2.97;2.30;;;10.70;99.90;;;;;;5053940;28;20213;-86
2022/05/17 04:16:33;;;;;;;4.53;2.10;;;10.70;99.90;;;;;;5054219;28;20666;-84
2022/05/17 04:19:00;;;;;;;2.75;1.92;;;10.90;99.90;;;;;;5081800;28;20280;-84
2022/05/17 04:21:26;;;;;;;2.58;1.75;;;11.10;99.90;;;;;;5055211;28;20186;-84
2022/05/17 04:23:52;;;;;;;7.88;1.80;;;10.90;99.90;;;;;;5041515;28;20191;-85
2022/05/17 04:26:18;;;;;;;2.25;1.77;;;;;;;;;;5053852;28;20210;-86
2022/05/17 04:28:44;;;;;;;3.05;1.85;;;;;;;;;;5056481;28;20281;-87
2022/05/17 04:31:10;;;;;;;1.48;1.38;;;;;;;;;;5064014;28;20186;-87
2022/05/17 04:33:37;;;;;;;3.28;1.42;;;;;;;;;;5051944;28;20214;-86
2022/05/17 04:36:04;;;;;;;1.50;1.38;;;;;;;;;;5056896;28;20213;-86
2022/05/17 04:38:30;;;;;;;5.78;1.48;;;;;;;;;;5089909;28;20189;-84
2022/05/17 04:40:56;;;;;;;1.73;1.40;;;;;;;;;;5070784;28;20187;-84
2022/05/17 04:43:22;;;;;;;3.88;1.55;;;;;;;;;;5055971;28;20217;-82
2022/05/17 04:45:49;;;;;;;5.20;1.30;;;;;;;;;;5056079;28;20206;-84
2022/05/17 04:48:15;;;;;;;1.88;1.25;;;;;;;;;;5070553;28;20186;-83
2022/05/17 04:50:41;;;;;;;1.52;1.33;;;;;;;;;;5072900;28;20178;-85
2022/05/17 04:53:07;;;;;;;1.45;1.17;;;;;;;;;;5072562;28;20662;-85
2022/05/17 04:55:33;;;;;;;1.40;1.17;;;;;;;;;;5068930;28;20650;-85
2022/05/17 04:57:59;;;;;;;1.95;1.73;;;;;;;;;;5076261;28;20273;-84
2022/05/17 05:00:26;;;;;;;1.23;1.10;;;11.90;99.90;;;;;;5096644;28;20170;-86
2022/05/17 05:02:52;;;;;;;2.30;1.35;;;;;;;;;;5062045;28;20230;-84
2022/05/17 05:05:20;;;;;;;2.78;1.83;;;12.30;99.90;;;;;;5097458;28;20248;-87
2022/05/17 05:07:46;;;;;;;1.92;1.08;;;;;;;;;;5097263;28;20179;-87
2022/05/17 05:10:12;;;;;;;2.30;1.13;;;;;;;;;;5078759;28;20201;-86
2022/05/17 05:12:38;;;;;;;2.00;1.40;;;;;;;;;;5096490;28;20265;-85
2022/05/17 05:15:04;;;;;;;1.20;1.08;;;12.80;99.90;;;;;;5078655;28;20269;-86
2022/05/17 05:17:35;;;;;;;0.90;0.82;;;12.80;99.90;;;;;;5078437;28;20620;-85
2022/05/17 05:20:01;;;;;;;0.85;0.85;;;;;;;;;;5096573;28;20250;-84
2022/05/17 05:22:30;;;;;;;0.88;0.88;;;13.10;99.90;;;;;;5096413;28;20720;-85
2022/05/17 05:24:56;;;;;;;1.42;1.08;;;;;;;;;;5078231;28;20170;-86
2022/05/17 05:27:22;;;;;;;1.38;1.02;;;;;;;;;;5078502;28;20218;-86
2022/05/17 05:29:50;;;;;;;1.38;1.00;;;;;;;;;;5096368;28;20182;-86
2022/05/17 05:32:16;;;;;;;0.70;0.70;;;;;;;;;;5079118;28;20631;-87
2022/05/17 05:34:42;;;;;;;0.98;0.68;;;;;;;;;;5096972;28;20218;-88
2022/05/17 05:37:10;;;;;;;1.10;1.00;;;;;;;;;;5096237;28;20201;-88
2022/05/17 05:39:36;;;;;;;0.77;0.70;;;;;;;;;;5078266;28;20650;-89
2022/05/17 05:42:04;;;;;;;1.35;0.90;;;13.90;99.40;;;;;;5078133;28;20220;-88
2022/05/17 05:44:35;;;;;;;1.75;0.95;;;13.90;98.00;;;;;;5072559;28;20189;-87
2022/05/17 05:47:01;;;;;;;1.38;0.80;;;;;;;;;;5085434;28;20285;-87
2022/05/17 05:49:27;;;;;;;0.90;0.90;;;;;;;;;;5062845;28;20179;-88
2022/05/17 05:51:53;;;;;;;0.98;0.77;;;;;;;;;;5078526;28;20186;-87
2022/05/17 05:54:37;;;;;;;2.33;0.70;;;;;;;;;;5078955;28;20284;-88
2022/05/17 05:57:03;;;;;;;1.13;0.95;;;;;;;;;;5098324;28;20261;-89
2022/05/17 05:59:30;;;;;;;0.88;0.75;;;14.30;93.60;;;;;;5078632;28;20181;-89
2022/05/17 06:01:57;;;;;;;0.70;0.70;;;;;;;;;;5096247;28;20333;-88
2022/05/17 06:04:30;;;;;;;1.08;0.93;;;;;;;;;;5078557;28;20512;-87
2022/05/17 06:06:57;;;;;;;0.70;0.70;;;;;;;;;;5082510;28;20206;-88
2022/05/17 06:09:24;;;;;;;1.85;0.82;;;;;;;;;;5085943;28;20171;-88
2022/05/17 06:11:52;;;;;;;0.85;0.52;;;;;;;;;;5085720;28;20174;-88
2022/05/17 06:14:20;;;;;;;0.88;0.85;;;;;;;;;;5088607;28;20185;-88
2022/05/17 06:16:46;;;;;;;0.95;0.70;;;;;;;;;;5104849;28;20239;-90
2022/05/17 06:19:12;;;;;;;2.05;0.68;;;;;;;;;;5089249;28;20265;-88
2022/05/17 06:21:46;;;;;;;0.55;0.55;;;;;;;;;;5089297;28;20331;-88
2022/05/17 06:24:15;;;;;;;0.98;0.80;;;;;;;;;;5085976;28;20179;-88
2022/05/17 06:26:41;;;;;;;1.40;0.50;;;;;;;;;;5068291;28;20200;-88
2022/05/17 06:29:07;;;;;;;1.25;1.10;;;;;;;;;;5085203;28;20663;-89
2022/05/17 06:31:41;;;;;;;0.80;0.80;;;;;;;;;;5070722;28;20654;-88
2022/05/17 06:34:07;;;;;;;0.75;0.73;;;;;;;;;;5067801;28;20187;-89
2022/05/17 06:36:33;;;;;;;1.88;0.70;;;;;;;;;;5057638;28;20662;-88
2022/05/17 06:38:59;;;;;;;1.10;0.85;;;;;;;;;;5075273;28;20183;-89
2022/05/17 06:41:25;;;;;;;1.15;0.73;;;;;;;;;;5057836;28;20175;-89
2022/05/17 06:43:51;;;;;;;0.68;0.68;;;;;;;;;;5057736;28;20178;-89
2022/05/17 06:46:22;;;;;;;1.48;0.70;;;;;;;;;;5059084;28;20207;-88
2022/05/17 06:48:56;;;;;;;1.02;0.60;;;;;;;;;;5057774;28;20183;-88
2022/05/17 06:51:22;;;;;;;1.05;0.50;;;;;;;;;;5063008;28;20185;-88
2022/05/17 06:53:50;;;;;;;1.13;0.70;;;;;;;;;;5078213;28;20201;-89
2022/05/17 06:56:19;;;;;;;2.15;0.50;;;;;;;;;;5097798;28;20190;-90
2022/05/17 06:58:45;;;;;;;0.98;0.73;;;;;;;;;;5082243;28;20183;-89
2022/05/17 07:01:18;;;;;;;0.50;0.50;;;16.30;74.20;;;;;;5082816;28;20231;-91
2022/05/17 07:03:44;;;;;;;1.52;0.70;;;;;;;;;;5082814;28;20171;-89
2022/05/17 07:06:10;;;;;;;0.50;0.50;;;;;;;;;;5082145;28;20207;-88
2022/05/17 07:08:41;;;;;;;0.50;0.50;;;;;;;;;;5082459;28;20171;-89
2022/05/17 07:13:52;;;;;;;2.08;0.55;;;;;;;;;;5099119;28;20209;-91
2022/05/17 07:16:21;;;;;;;2.50;1.42;;;;;;;;;;5081964;28;20167;-89
2022/05/17 07:18:47;;;;;;;1.02;0.70;;;;;;;;;;5081597;28;20167;-89
2022/05/17 07:21:14;;;;;;;0.50;0.50;;;;;;;;;;5081452;28;20243;-89
2022/05/17 07:23:40;;;;;;;0.77;0.70;;;;;;;;;;5084877;28;20193;-89
2022/05/17 07:26:09;;;;;;;0.60;0.60;;;;;;;;;;5087404;28;20252;-89
2022/05/17 07:28:53;;;;;;;0.75;0.63;;;16.20;59.70;;;;;;5093924;28;20182;-88
2022/05/17 07:31:21;;;;;;;0.63;0.47;;;;;;;;;;5096317;28;20318;-89
2022/05/17 07:33:47;;;;;;;0.60;0.60;;;;;;;;;;5115227;28;20223;-88
2022/05/17 07:36:13;;;;;;;0.52;0.50;;;;;;;;;;5096675;28;20177;-88
2022/05/17 07:38:39;;;;;;;0.60;0.50;;;16.20;75.80;;;;;;5115197;28;20247;-87
2022/05/17 07:41:08;;;;;;;0.40;0.40;;;;;;;;;;5096626;28;20610;-88
2022/05/17 07:43:36;;;;;;;0.63;0.63;;;;;;;;;;5097040;28;20181;-87
2022/05/17 07:46:02;;;;;;;0.70;0.70;;;;;;;;;;5096112;28;20292;-88
2022/05/17 07:48:28;;;;;;;1.30;0.80;;;;;;;;;;5096739;28;20615;-87
2022/05/17 07:51:11;;;;;;;0.70;0.50;;;16.70;61.90;;;;;;5115458;28;20173;-90
2022/05/17 07:53:39;;;;;;;0.60;0.60;;;;;;;;;;5081224;28;20687;-90
2022/05/17 07:56:05;;;;;;;0.63;0.40;;;;;;;;;;5096434;28;20265;-88
2022/05/17 07:58:32;;;;;;;0.50;0.50;;;;;;;;;;5096696;28;20637;-90
2022/05/17 08:01:05;;;;;;;0.50;0.50;;;;;;;;;;5096672;28;20185;-89
2022/05/17 08:03:34;;;;;;;2.05;0.55;;;16.20;63.00;;;;;;5096865;28;20222;-90
2022/05/17 08:06:03;;;;;;;0.70;0.40;;;16.20;62.00;;;;;;5096626;28;20197;-90
2022/05/17 08:08:29;;;;;;;0.50;0.50;;;;;;;;;;5096316;28;20186;-89
2022/05/17 08:10:57;;;;;;;0.40;0.40;;;;;;;;;;5096617;28;20286;-89
2022/05/17 08:13:26;;;;;;;0.50;0.50;;;16.30;61.60;;;;;;5096442;28;20238;-88
2022/05/17 08:15:54;;;;;;;0.43;0.43;;;;;;;;;;5114385;28;20174;-89
2022/05/17 08:18:23;;;;;;;0.52;0.52;;;;;;;;;;5096243;28;20209;-89
2022/05/17 08:20:51;;;;;;;1.75;0.60;;;;;;;;;;5096234;28;20205;-89
2022/05/17 08:23:20;;;;;;;0.50;0.50;;;;;;;;;;5095913;28;20622;-90
2022/05/17 08:28:31;;;;;;;0.55;0.40;;;;;;;;;;5114967;28;20173;-89
2022/05/17 08:30:57;;;;;;;0.57;0.40;;;;;;;;;;5096512;28;20182;-90
2022/05/17 08:33:26;;;;;;;0.40;0.40;;;;;;;;;;5096561;28;20206;-90
2022/05/17 08:36:02;;;;;;;0.63;0.63;;;17.00;56.90;;;;;;5096563;28;20232;-90
2022/05/17 08:38:38;;;;;;;0.40;0.40;;;;;;;;;;5096287;28;20166;-88
2022/05/17 08:41:12;;;;;;;0.70;0.40;;;;;;;;;;5095622;28;20219;-92
2022/05/17 08:43:56;;;;;;;0.60;0.60;;;;;;;;;;5113673;28;20188;-89
2022/05/17 08:46:40;;;;;;;2.80;0.40;;;;;;;;;;5114487;28;20201;-89
2022/05/17 08:49:22;;;;;;;1.02;0.75;;;17.70;55.80;;;;;;5096035;28;20178;-90
2022/05/17 08:52:02;;;;;;;0.45;0.45;;;;;;;;;;5096624;28;20170;-90
2022/05/17 08:54:36;;;;;;;0.47;0.40;;;17.80;55.90;;;;;;5114417;28;20233;-91
2022/05/17 08:57:20;;;;;;;;;;;;;;;;;;;;;
2022/05/17 08:59:49;;;;;;;1.10;0.85;;;;;;;;;;5116579;28;20162;-90
2022/05/17 09:02:44;;;;;;;0.40;0.40;;;;;;;;;;5103142;28;20312;-89
2022/05/17 09:05:30;;;;;;;0.30;0.30;;;;;;;;;;5124776;28;20178;-88
2022/05/17 09:08:11;;;;;;;0.52;0.47;;;;;;;;;;5096556;28;20635;-88
2022/05/17 09:10:42;;;;;;;0.40;0.40;;;;;;;;;;5096480;28;20174;-88
2022/05/17 09:13:11;;;;;;;0.43;0.43;;;;;;;;;;5097034;28;20236;-90
2022/05/17 09:15:47;;;;;;;0.82;0.60;;;;;;;;;;5099615;28;20626;-89
2022/05/17 09:18:16;;;;;;;2.38;0.50;;;;;;;;;;5096301;28;20185;-90
2022/05/17 09:20:45;;;;;;;0.35;0.35;;;;;;;;;;5096531;28;20256;-90
2022/05/17 09:23:19;;;;;;;1.02;0.93;;;;;;;;;;5096119;28;20192;-89
2022/05/17 09:25:51;;;;;;;0.47;0.40;;;18.10;54.60;;;;;;5096253;28;20228;-89
2022/05/17 09:28:27;;;;;;;0.30;0.30;;;;;;;;;;5095537;28;20177;-89
2022/05/17 09:31:19;;;;;;;4.18;0.60;;;;;;;;;;5114338;28;20247;-92
2022/05/17 09:33:49;;;;;;;0.40;0.40;;;18.50;56.10;;;;;;5114685;28;20170;-89
2022/05/17 09:36:48;;;;;;;0.43;0.43;;;18.50;53.90;;;;;;5095952;28;20177;-91
2022/05/17 09:39:27;;;;;;;0.40;0.40;;;18.60;55.90;;;;;;5095953;28;20170;-89
2022/05/17 09:41:58;;;;;;;1.67;1.00;;;18.70;55.60;;;;;;5079491;28;20178;-89
2022/05/17 09:44:35;;;;;;;0.52;0.50;;;18.90;55.50;;;;;;5098818;28;20180;-89
2022/05/17 09:47:28;;;;;;;0.70;0.38;;;19.00;53.10;;;;;;5118444;28;20215;-90
2022/05/17 09:52:46;;;;;;;0.57;0.45;;;;;;;;;;5120122;28;20737;-90
2022/05/17 09:55:27;;;;;;;1.23;0.70;;;;;;;;;;5119853;28;20249;-91
2022/05/17 09:58:27;;;;;;;0.35;0.35;;;18.90;54.30;;;;;;5100597;28;20176;-91
2022/05/17 10:00:54;;;;;;;0.52;0.40;;;;;;;;;;5099616;28;20178;-90
2022/05/17 10:03:44;;;;;;;0.55;0.50;;;18.40;55.00;;;;;;5099514;28;20230;-90
2022/05/17 10:06:38;;;;;;;0.40;0.40;;;18.50;56.40;;;;;;5114702;28;20210;-89
2022/05/17 10:09:06;;;;;;;0.55;0.52;;;;;;;;;;5099744;28;20268;-90
2022/05/17 10:11:59;;;;;;;1.85;0.68;;;18.40;53.70;;;;;;5098936;28;20194;-89
2022/05/17 10:14:28;;;;;;;0.38;0.38;;;;;;;;;;5099284;28;20173;-91
2022/05/17 10:16:58;;;;;;;0.50;0.50;;;;;;;;;;5099652;28;20178;-90
2022/05/17 10:19:43;;;;;;;1.67;0.70;;;18.70;54.90;;;;;;5099435;28;20223;-91
2022/05/17 10:23:02;;;;;;;;;;;;;;;;;;;;;
2022/05/17 10:26:02;;;;;;;1.08;0.50;;;18.60;54.60;;;;;;5018236;28;20631;-89
2022/05/17 10:29:03;;;;;;;0.38;0.38;;;18.80;55.30;;;;;;5111315;28;20177;-89
2022/05/17 10:32:16;;;;;;;;;;;;;;;;;;;;;
2022/05/17 10:34:45;;;;;;;0.63;0.40;;;;;;;;;;5119120;28;20245;-90
2022/05/17 10:37:20;;;;;;;0.30;0.30;;;18.40;52.00;;;;;;5117241;28;20223;-90
2022/05/17 10:39:59;;;;;;;0.98;0.50;;;18.30;52.40;;;;;;5118594;28;20162;-90
2022/05/17 10:42:28;;;;;;;1.65;0.50;;;;;;;;;;5099259;28;20188;-91
2022/05/17 10:45:05;;;;;;;0.65;0.47;;;18.20;53.40;;;;;;5105184;28;20198;-89
2022/05/17 10:48:11;;;;;;;0.40;0.40;;;18.60;54.50;;;;;;5108052;28;20711;-90
2022/05/17 10:51:01;;;;;;;0.28;0.28;;;19.00;62.80;;;;;;5102323;28;20219;-90
2022/05/17 10:53:45;;;;;;;0.50;0.50;;;19.00;53.40;;;;;;5103251;28;20170;-91
2022/05/17 10:56:42;;;;;;;0.50;0.50;;;18.80;53.10;;;;;;5111041;28;20177;-90
2022/05/17 10:59:45;;;;;;;0.28;0.28;;;19.00;53.20;;;;;;5106141;28;20181;-91
2022/05/17 11:02:16;;;;;;;0.50;0.50;;;;;;;;;;5102771;28;20661;-89
2022/05/17 11:05:02;;;;;;;0.30;0.22;;;;;;;;;;5106038;28;20179;-91
2022/05/17 11:07:56;;;;;;;0.40;0.40;;;18.40;52.70;;;;;;5106465;28;20231;-90
2022/05/17 11:10:38;;;;;;;1.45;0.93;;;;;;;;;;5070583;28;20191;-91
2022/05/17 11:13:21;;;;;;;0.55;0.52;;;18.70;51.70;;;;;;5072428;28;20180;-90
2022/05/17 11:16:04;;;;;;;0.40;0.40;;;18.80;52.60;;;;;;5069091;28;20513;-90
2022/05/17 11:19:13;;;;;;;;;;;;;;;;;;;;;
2022/05/17 11:21:43;;;;;;;0.30;0.30;;;;;;;;;;5064992;28;20278;-91
2022/05/17 11:24:29;;;;;;;0.40;0.40;;;;;;;;;;5063371;28;20175;-91
2022/05/17 11:27:04;;;;;;;0.30;0.30;;;;;;;;;;5068913;28;20196;-90
2022/05/17 11:29:56;;;;;;;0.28;0.25;;;;;;;;;;5077972;28;20520;-90
2022/05/17 11:32:32;;;;;;;0.20;0.20;;;;;;;;;;5079407;28;20179;-90
2022/05/17 11:35:22;;;;;;;0.30;0.30;;;18.90;50.70;;;;;;5078062;28;20167;-89
2022/05/17 11:37:59;;;;;;;0.30;0.30;;;;;;;;;;5071301;28;20196;-90
2022/05/17 11:41:06;;;;;;;0.40;0.40;;;;;;;;;;5067860;28;20203;-90
2022/05/17 11:43:48;;;;;;;0.30;0.30;;;;;;;;;;5081745;28;20188;-89
2022/05/17 11:46:35;;;;;;;0.50;0.40;;;;;;;;;;5079613;28;20254;-89
2022/05/17 11:49:02;;;;;;;0.35;0.35;;;;;;;;;;5078210;28;20203;-90
2022/05/17 11:51:43;;;;;;;0.30;0.30;;;18.40;51.20;;;;;;5078990;28;20179;-89
2022/05/17 11:54:10;;;;;;;0.30;0.30;;;;;;;;;;5076468;28;20193;-89
2022/05/17 11:56:45;;;;;;;0.93;0.40;;;;;;;;;;5068987;28;20186;-88
2022/05/17 11:59:12;;;;;;;0.45;0.45;;;;;;;;;;5065742;28;20184;-88
2022/05/17 12:01:38;;;;;;;0.30;0.30;;;;;;;;;;5064766;28;20544;-88
2022/05/17 12:04:28;;;;;;;0.65;0.63;;;19.00;51.90;;;;;;5065706;28;20277;-90
2022/05/17 12:06:54;;;;;;;0.40;0.40;;;19.10;62.60;;;;;;5062029;28;20218;-88
2022/05/17 12:09:32;;;;;;;0.40;0.30;;;18.60;61.90;;;;;;5057458;28;20223;-89
2022/05/17 12:12:31;;;;;;;0.57;0.47;;;18.60;50.90;;;;;;5057028;28;20175;-89
2022/05/17 12:15:18;;;;;;;1.13;0.50;;;18.30;66.20;;;;;;5058628;28;20228;-90
2022/05/17 12:18:06;;;;;;;0.38;0.38;;;;;;;;;;5057255;28;20237;-90
2022/05/17 12:20:39;;;;;;;0.38;0.38;;;;;;;;;;5059427;28;20183;-91
2022/05/17 12:23:07;;;;;;;0.55;0.40;;;;;;;;;;5114104;28;20185;-90
2022/05/17 12:25:45;;;;;;;1.50;0.30;;;;;;;;;;5099261;28;20181;-90
2022/05/17 12:28:43;;;;;;;1.95;0.60;;;;;;;;;;5119060;28;20538;-90
2022/05/17 12:31:20;;;;;;;0.22;0.22;;;18.50;52.50;;;;;;5118160;28;20182;-90
2022/05/17 12:33:48;;;;;;;0.45;0.30;;;;;;;;;;5098758;28;20173;-90
2022/05/17 12:36:23;;;;;;;0.65;0.40;;;;;;;;;;5116973;28;20169;-90
2022/05/17 12:44:26;;;;;;;0.68;0.40;;;;;;;;;;5116003;28;20169;-90
2022/05/17 12:47:00;;;;;;;0.40;0.30;;;;;;;;;;5082443;28;20520;-89
2022/05/17 12:49:28;;;;;;;0.30;0.30;;;;;;;;;;5116354;28;20162;-90
2022/05/17 12:51:59;;;;;;;2.05;0.47;;;;;;;;;;5097339;28;20186;-91
2022/05/17 12:54:29;;;;;;;3.50;0.85;;;18.60;51.40;;;;;;5102345;28;20170;-90
2022/05/17 12:56:59;;;;;;;0.30;0.30;;;;;;;;;;5101023;28;20188;-89
2022/05/17 12:59:31;;;;;;;0.40;0.40;;;18.60;50.30;;;;;;5098461;28;20173;-89
2022/05/17 13:02:20;;;;;;;0.90;0.90;;;;;;;;;;5117523;28;20685;-89
2022/05/17 13:05:03;;;;;;;0.20;0.20;;;;;;;;;;5114558;28;20193;-88
2022/05/17 13:07:39;;;;;;;2.17;0.40;;;;;;;;;;5112984;28;20209;-89
2022/05/17 13:13:07;;;;;;;;;;;;;;;;;;;;;
2022/05/17 13:15:41;;;;;;;0.50;0.50;;;;;;;;;;5137863;27;20177;-89
2022/05/17 13:18:10;;;;;;;0.65;0.50;;;;;;;;;;5140054;27;20270;-89
2022/05/17 13:21:03;;;;;;;0.45;0.40;;;;;;;;;;5124792;27;20164;-90
2022/05/17 13:23:38;;;;;;;0.73;0.43;;;;;;;;;;5124890;27;20170;-90
2022/05/17 13:59:50;;;;;;;0.30;0.30;;;;;;;;;;5020189;28;20237;-89
2022/05/17 14:02:32;;;;;;;0.40;0.40;;;;;;;;;;5004161;28;20181;-89
2022/05/17 14:05:07;;;;;;;0.65;0.55;;;;;;;;;;5006355;28;20288;-92
2022/05/17 14:07:45;;;;;;;0.95;0.60;;;;;;;;;;5022154;28;20192;-89
2022/05/17 14:13:06;;;;;;;0.40;0.40;;;;;;;;;;5019367;28;20185;-92
2022/05/17 14:15:37;;;;;;;1.80;0.90;;;;;;;;;;5002631;28;20191;-90
2022/05/17 14:18:06;;;;;;;0.65;0.50;;;;;;;;;;5004394;28;20177;-90
2022/05/17 14:20:32;;;;;;;0.50;0.50;;;;;;;;;;5018521;28;20545;-91
2022/05/17 14:22:59;;;;;;;0.40;0.40;;;;;;;;;;5016818;28;20215;-90
2022/05/17 14:25:28;;;;;;;0.70;0.57;;;;;;;;;;5012151;28;20181;-91
2022/05/17 14:28:00;;;;;;;0.40;0.40;;;;;;;;;;5014831;28;20181;-91
2022/05/17 14:30:27;;;;;;;0.55;0.40;;;;;;;;;;4998840;28;20192;-90
2022/05/17 14:32:56;;;;;;;0.60;0.60;;;;;;;;;;4998611;28;20181;-89
2022/05/17 14:35:22;;;;;;;0.57;0.57;;;;;;;;;;4998302;28;20654;-89
2022/05/17 14:37:49;;;;;;;0.98;0.60;;;;;;;;;;4998403;28;20235;-89
2022/05/17 14:40:17;;;;;;;0.50;0.50;;;;;;;;;;4998385;28;20191;-88
2022/05/17 14:42:53;;;;;;;1.13;0.88;;;;;;;;;;4997512;28;20208;-91
2022/05/17 14:45:20;;;;;;;8.20;0.90;;;;;;;;;;4997736;28;20576;-87
2022/05/17 14:47:48;;;;;;;0.43;0.43;;;;;;;;;;4996961;28;20223;-86
2022/05/17 14:50:20;;;;;;;1.02;0.68;;;18.00;48.60;;;;;;5014867;28;20223;-88
2022/05/17 14:52:46;;;;;;;1.42;0.50;;;;;;;;;;4997092;28;20191;-86
2022/05/17 14:55:16;;;;;;;0.80;0.60;;;;;;;;;;4997091;28;20173;-87
2022/05/17 14:57:54;;;;;;;0.73;0.47;;;;;;;;;;4997385;28;20677;-87
2022/05/17 15:00:34;;;;;;;0.30;0.30;;;;;;;;;;5007899;28;20271;-89
2022/05/17 15:03:09;;;;;;;0.32;0.30;;;;;;;;;;4982002;28;20547;-89
2022/05/17 15:05:41;;;;;;;0.85;0.60;;;;;;;;;;4996986;28;20219;-89
2022/05/17 15:08:09;;;;;;;4.47;0.85;;;;;;;;;;5003744;28;20192;-88
2022/05/17 15:10:40;;;;;;;1.63;0.55;;;;;;;;;;4987483;28;20185;-89
2022/05/17 15:13:09;;;;;;;7.72;1.30;;;;;;;;;;5000944;28;20216;-88
2022/05/17 15:15:35;;;;;;;0.68;0.60;;;;;;;;;;5024147;28;20181;-88
2022/05/17 15:18:08;;;;;;;0.57;0.57;;;;;;;;;;4996185;28;20181;-89
2022/05/17 15:20:37;;;;;;;3.70;0.57;;;;;;;;;;4999840;28;20169;-87
2022/05/17 15:23:04;;;;;;;1.30;0.50;;;;;;;;;;5003753;28;20260;-87
2022/05/17 15:25:33;;;;;;;1.23;0.40;;;;;;;;;;5000762;28;20183;-88
2022/05/17 15:27:59;;;;;;;1.02;0.50;;;;;;;;;;5001416;28;20264;-86
2022/05/17 15:30:29;;;;;;;0.60;0.40;;;;;;;;;;5018516;28;20177;-87
2022/05/17 15:33:04;;;;;;;0.55;0.55;;;;;;;;;;4998428;28;20271;-87
2022/05/17 15:35:31;;;;;;;0.68;0.50;;;;;;;;;;4998792;28;20180;-87